sensor_id;sensor_type;location;lat;lon;timestamp;P1;durP1;ratioP1;P2;durP2;ratioP2
54372;SDS011;69157;53.094;10.016;2023-06-14T00:01:32;3.00;;;1.50;;
54372;SDS011;69157;53.094;10.016;2023-06-14T00:03:59;2.50;;;1.70;;
54372;SDS011;69157;53.094;10.016;2023-06-14T00:06:26;2.80;;;1.67;;
54372;SDS011;69157;53.094;10.016;2023-06-14T00:08:52;2.88;;;1.60;;
54372;SDS011;69157;53.094;10.016;2023-06-14T00:11:19;3.03;;;1.50;;
54372;SDS011;69157;53.094;10.016;2023-06-14T00:13:45;1.38;;;1.17;;
54372;SDS011;69157;53.094;10.016;2023-06-14T00:16:12;1.75;;;1.38;;
54372;SDS011;69157;53.094;10.016;2023-06-14T00:18:38;2.33;;;1.67;;
54372;SDS011;69157;53.094;10.016;2023-06-14T00:21:04;3.58;;;1.75;;
54372;SDS011;69157;53.094;10.016;2023-06-14T00:23:30;3.70;;;1.70;;
54372;SDS011;69157;53.094;10.016;2023-06-14T00:25:56;2.88;;;1.95;;
54372;SDS011;69157;53.094;10.016;2023-06-14T00:28:22;2.35;;;1.85;;
54372;SDS011;69157;53.094;10.016;2023-06-14T00:30:48;4.85;;;1.63;;
54372;SDS011;69157;53.094;10.016;2023-06-14T00:33:15;4.43;;;1.77;;
54372;SDS011;69157;53.094;10.016;2023-06-14T00:35:41;5.90;;;1.60;;
54372;SDS011;69157;53.094;10.016;2023-06-14T00:38:07;2.10;;;1.42;;
54372;SDS011;69157;53.094;10.016;2023-06-14T00:40:33;3.53;;;1.75;;
54372;SDS011;69157;53.094;10.016;2023-06-14T00:43:00;4.90;;;1.90;;
54372;SDS011;69157;53.094;10.016;2023-06-14T00:45:26;3.28;;;1.77;;
54372;SDS011;69157;53.094;10.016;2023-06-14T00:47:52;2.10;;;1.52;;
54372;SDS011;69157;53.094;10.016;2023-06-14T00:50:20;2.80;;;1.58;;
54372;SDS011;69157;53.094;10.016;2023-06-14T00:52:48;1.50;;;1.40;;
54372;SDS011;69157;53.094;10.016;2023-06-14T00:55:14;3.25;;;2.00;;
54372;SDS011;69157;53.094;10.016;2023-06-14T00:57:40;5.68;;;1.60;;
54372;SDS011;69157;53.094;10.016;2023-06-14T01:00:06;2.25;;;1.50;;
54372;SDS011;69157;53.094;10.016;2023-06-14T01:02:37;7.13;;;1.65;;
54372;SDS011;69157;53.094;10.016;2023-06-14T01:05:04;4.25;;;1.80;;
54372;SDS011;69157;53.094;10.016;2023-06-14T01:15:12;2.38;;;1.67;;
54372;SDS011;69157;53.094;10.016;2023-06-14T01:17:39;4.13;;;2.17;;
54372;SDS011;69157;53.094;10.016;2023-06-14T01:20:09;3.88;;;1.75;;
54372;SDS011;69157;53.094;10.016;2023-06-14T01:25:05;2.33;;;1.67;;
54372;SDS011;69157;53.094;10.016;2023-06-14T01:27:31;3.80;;;2.00;;
54372;SDS011;69157;53.094;10.016;2023-06-14T01:29:57;3.47;;;1.95;;
54372;SDS011;69157;53.094;10.016;2023-06-14T01:32:24;2.95;;;1.70;;
54372;SDS011;69157;53.094;10.016;2023-06-14T01:34:52;3.08;;;2.20;;
54372;SDS011;69157;53.094;10.016;2023-06-14T01:37:18;5.57;;;1.88;;
54372;SDS011;69157;53.094;10.016;2023-06-14T01:39:45;3.15;;;1.80;;
54372;SDS011;69157;53.094;10.016;2023-06-14T01:42:11;2.53;;;1.75;;
54372;SDS011;69157;53.094;10.016;2023-06-14T01:44:39;3.85;;;2.00;;
54372;SDS011;69157;53.094;10.016;2023-06-14T01:47:06;3.08;;;2.00;;
54372;SDS011;69157;53.094;10.016;2023-06-14T01:49:35;2.78;;;1.67;;
54372;SDS011;69157;53.094;10.016;2023-06-14T01:52:01;3.13;;;2.08;;
54372;SDS011;69157;53.094;10.016;2023-06-14T01:54:27;3.70;;;2.17;;
54372;SDS011;69157;53.094;10.016;2023-06-14T01:56:54;2.30;;;1.77;;
54372;SDS011;69157;53.094;10.016;2023-06-14T01:59:21;3.05;;;1.90;;
54372;SDS011;69157;53.094;10.016;2023-06-14T02:01:47;3.00;;;1.80;;
54372;SDS011;69157;53.094;10.016;2023-06-14T02:04:12;2.65;;;2.00;;
54372;SDS011;69157;53.094;10.016;2023-06-14T02:06:38;3.28;;;1.95;;
54372;SDS011;69157;53.094;10.016;2023-06-14T02:09:04;2.47;;;2.10;;
54372;SDS011;69157;53.094;10.016;2023-06-14T02:11:30;2.90;;;2.05;;
54372;SDS011;69157;53.094;10.016;2023-06-14T02:13:56;4.13;;;2.20;;
54372;SDS011;69157;53.094;10.016;2023-06-14T02:16:24;3.85;;;2.13;;
54372;SDS011;69157;53.094;10.016;2023-06-14T02:18:53;2.58;;;1.80;;
54372;SDS011;69157;53.094;10.016;2023-06-14T02:21:19;9.05;;;2.13;;
54372;SDS011;69157;53.094;10.016;2023-06-14T02:23:45;5.07;;;2.35;;
54372;SDS011;69157;53.094;10.016;2023-06-14T02:26:11;6.72;;;2.10;;
54372;SDS011;69157;53.094;10.016;2023-06-14T02:28:37;3.03;;;2.05;;
54372;SDS011;69157;53.094;10.016;2023-06-14T02:31:03;4.05;;;2.15;;
54372;SDS011;69157;53.094;10.016;2023-06-14T02:33:29;2.67;;;1.92;;
54372;SDS011;69157;53.094;10.016;2023-06-14T02:35:55;2.33;;;1.83;;
54372;SDS011;69157;53.094;10.016;2023-06-14T02:38:22;2.35;;;1.90;;
54372;SDS011;69157;53.094;10.016;2023-06-14T02:40:48;4.03;;;2.08;;
54372;SDS011;69157;53.094;10.016;2023-06-14T02:43:14;3.78;;;2.20;;
54372;SDS011;69157;53.094;10.016;2023-06-14T02:45:42;3.60;;;2.03;;
54372;SDS011;69157;53.094;10.016;2023-06-14T02:48:08;4.22;;;2.13;;
54372;SDS011;69157;53.094;10.016;2023-06-14T02:50:34;8.20;;;2.10;;
54372;SDS011;69157;53.094;10.016;2023-06-14T02:53:00;4.30;;;2.10;;
54372;SDS011;69157;53.094;10.016;2023-06-14T02:55:27;2.15;;;1.80;;
54372;SDS011;69157;53.094;10.016;2023-06-14T02:57:53;2.88;;;2.00;;
54372;SDS011;69157;53.094;10.016;2023-06-14T03:00:20;3.83;;;2.25;;
54372;SDS011;69157;53.094;10.016;2023-06-14T03:02:46;2.88;;;2.10;;
54372;SDS011;69157;53.094;10.016;2023-06-14T03:05:12;3.65;;;2.28;;
54372;SDS011;69157;53.094;10.016;2023-06-14T03:07:39;3.38;;;1.85;;
54372;SDS011;69157;53.094;10.016;2023-06-14T03:10:06;3.45;;;2.00;;
54372;SDS011;69157;53.094;10.016;2023-06-14T03:12:33;3.00;;;2.05;;
54372;SDS011;69157;53.094;10.016;2023-06-14T03:14:59;4.13;;;2.40;;
54372;SDS011;69157;53.094;10.016;2023-06-14T03:17:29;5.30;;;2.05;;
54372;SDS011;69157;53.094;10.016;2023-06-14T03:19:58;2.92;;;1.95;;
54372;SDS011;69157;53.094;10.016;2023-06-14T03:22:25;4.25;;;2.33;;
54372;SDS011;69157;53.094;10.016;2023-06-14T03:24:51;4.13;;;2.22;;
54372;SDS011;69157;53.094;10.016;2023-06-14T03:27:19;2.72;;;2.03;;
54372;SDS011;69157;53.094;10.016;2023-06-14T03:29:45;3.13;;;2.22;;
54372;SDS011;69157;53.094;10.016;2023-06-14T03:32:11;3.58;;;2.15;;
54372;SDS011;69157;53.094;10.016;2023-06-14T03:34:37;3.92;;;2.20;;
54372;SDS011;69157;53.094;10.016;2023-06-14T03:37:06;3.50;;;2.38;;
54372;SDS011;69157;53.094;10.016;2023-06-14T03:39:32;2.83;;;2.17;;
54372;SDS011;69157;53.094;10.016;2023-06-14T03:41:58;2.45;;;1.98;;
54372;SDS011;69157;53.094;10.016;2023-06-14T03:44:26;3.08;;;2.10;;
54372;SDS011;69157;53.094;10.016;2023-06-14T03:46:52;4.22;;;1.85;;
54372;SDS011;69157;53.094;10.016;2023-06-14T03:49:18;2.63;;;2.05;;
54372;SDS011;69157;53.094;10.016;2023-06-14T03:51:44;3.78;;;2.38;;
54372;SDS011;69157;53.094;10.016;2023-06-14T03:54:16;4.53;;;2.22;;
54372;SDS011;69157;53.094;10.016;2023-06-14T03:56:42;5.38;;;2.75;;
54372;SDS011;69157;53.094;10.016;2023-06-14T03:59:08;4.35;;;2.67;;
54372;SDS011;69157;53.094;10.016;2023-06-14T04:01:34;3.50;;;2.30;;
54372;SDS011;69157;53.094;10.016;2023-06-14T04:04:00;4.68;;;2.65;;
54372;SDS011;69157;53.094;10.016;2023-06-14T04:06:26;4.18;;;2.33;;
54372;SDS011;69157;53.094;10.016;2023-06-14T04:08:57;4.55;;;2.30;;
54372;SDS011;69157;53.094;10.016;2023-06-14T04:11:26;3.80;;;2.53;;
54372;SDS011;69157;53.094;10.016;2023-06-14T04:13:52;2.65;;;2.33;;
54372;SDS011;69157;53.094;10.016;2023-06-14T04:16:18;4.00;;;2.50;;
54372;SDS011;69157;53.094;10.016;2023-06-14T04:18:44;3.60;;;2.42;;
54372;SDS011;69157;53.094;10.016;2023-06-14T04:21:11;4.03;;;2.65;;
54372;SDS011;69157;53.094;10.016;2023-06-14T04:23:37;6.63;;;2.55;;
54372;SDS011;69157;53.094;10.016;2023-06-14T04:26:03;4.70;;;2.13;;
54372;SDS011;69157;53.094;10.016;2023-06-14T04:28:29;3.55;;;2.13;;
54372;SDS011;69157;53.094;10.016;2023-06-14T04:30:55;4.35;;;2.67;;
54372;SDS011;69157;53.094;10.016;2023-06-14T04:33:21;4.70;;;2.20;;
54372;SDS011;69157;53.094;10.016;2023-06-14T04:35:51;4.55;;;2.30;;
54372;SDS011;69157;53.094;10.016;2023-06-14T04:38:18;3.50;;;2.28;;
54372;SDS011;69157;53.094;10.016;2023-06-14T04:40:49;5.35;;;2.50;;
54372;SDS011;69157;53.094;10.016;2023-06-14T04:43:17;3.25;;;2.53;;
54372;SDS011;69157;53.094;10.016;2023-06-14T04:45:49;5.03;;;2.33;;
54372;SDS011;69157;53.094;10.016;2023-06-14T04:48:16;2.47;;;1.95;;
54372;SDS011;69157;53.094;10.016;2023-06-14T04:50:44;3.90;;;2.10;;
54372;SDS011;69157;53.094;10.016;2023-06-14T04:53:10;3.45;;;2.20;;
54372;SDS011;69157;53.094;10.016;2023-06-14T04:55:36;3.85;;;2.35;;
54372;SDS011;69157;53.094;10.016;2023-06-14T04:58:03;4.47;;;2.10;;
54372;SDS011;69157;53.094;10.016;2023-06-14T05:00:29;6.72;;;2.58;;
54372;SDS011;69157;53.094;10.016;2023-06-14T05:02:55;2.72;;;2.20;;
54372;SDS011;69157;53.094;10.016;2023-06-14T05:05:22;2.42;;;2.00;;
54372;SDS011;69157;53.094;10.016;2023-06-14T05:07:49;6.53;;;2.55;;
54372;SDS011;69157;53.094;10.016;2023-06-14T05:10:15;3.58;;;2.30;;
54372;SDS011;69157;53.094;10.016;2023-06-14T05:12:41;3.10;;;2.10;;
54372;SDS011;69157;53.094;10.016;2023-06-14T05:15:08;4.15;;;2.15;;
54372;SDS011;69157;53.094;10.016;2023-06-14T05:17:35;3.55;;;2.30;;
54372;SDS011;69157;53.094;10.016;2023-06-14T05:20:01;3.13;;;2.28;;
54372;SDS011;69157;53.094;10.016;2023-06-14T05:22:28;2.80;;;2.13;;
54372;SDS011;69157;53.094;10.016;2023-06-14T05:24:54;2.35;;;1.98;;
54372;SDS011;69157;53.094;10.016;2023-06-14T05:27:20;3.53;;;2.00;;
54372;SDS011;69157;53.094;10.016;2023-06-14T05:29:47;2.78;;;2.08;;
54372;SDS011;69157;53.094;10.016;2023-06-14T05:32:12;2.85;;;2.00;;
54372;SDS011;69157;53.094;10.016;2023-06-14T05:34:39;2.35;;;2.05;;
54372;SDS011;69157;53.094;10.016;2023-06-14T05:37:05;1.90;;;1.73;;
54372;SDS011;69157;53.094;10.016;2023-06-14T05:39:31;2.45;;;1.65;;
54372;SDS011;69157;53.094;10.016;2023-06-14T05:41:57;2.30;;;1.73;;
54372;SDS011;69157;53.094;10.016;2023-06-14T05:44:23;2.03;;;1.60;;
54372;SDS011;69157;53.094;10.016;2023-06-14T05:46:49;2.70;;;1.90;;
54372;SDS011;69157;53.094;10.016;2023-06-14T05:49:15;3.33;;;1.67;;
54372;SDS011;69157;53.094;10.016;2023-06-14T05:51:41;3.08;;;2.15;;
54372;SDS011;69157;53.094;10.016;2023-06-14T05:54:07;2.75;;;1.83;;
54372;SDS011;69157;53.094;10.016;2023-06-14T05:56:33;2.92;;;1.70;;
54372;SDS011;69157;53.094;10.016;2023-06-14T05:58:59;2.97;;;2.00;;
54372;SDS011;69157;53.094;10.016;2023-06-14T06:01:26;2.95;;;1.80;;
54372;SDS011;69157;53.094;10.016;2023-06-14T06:03:52;2.53;;;1.90;;
54372;SDS011;69157;53.094;10.016;2023-06-14T06:06:18;2.70;;;1.90;;
54372;SDS011;69157;53.094;10.016;2023-06-14T06:08:45;2.65;;;2.00;;
54372;SDS011;69157;53.094;10.016;2023-06-14T06:11:11;2.55;;;1.83;;
54372;SDS011;69157;53.094;10.016;2023-06-14T06:13:38;3.05;;;1.85;;
54372;SDS011;69157;53.094;10.016;2023-06-14T06:16:05;2.47;;;1.65;;
54372;SDS011;69157;53.094;10.016;2023-06-14T06:18:31;2.20;;;1.45;;
54372;SDS011;69157;53.094;10.016;2023-06-14T06:20:57;2.55;;;1.70;;
54372;SDS011;69157;53.094;10.016;2023-06-14T06:23:23;2.65;;;1.67;;
54372;SDS011;69157;53.094;10.016;2023-06-14T06:25:49;2.75;;;1.50;;
54372;SDS011;69157;53.094;10.016;2023-06-14T06:28:16;1.60;;;1.45;;
54372;SDS011;69157;53.094;10.016;2023-06-14T06:30:43;3.15;;;1.83;;
54372;SDS011;69157;53.094;10.016;2023-06-14T06:33:09;2.88;;;1.70;;
54372;SDS011;69157;53.094;10.016;2023-06-14T06:35:35;1.73;;;1.50;;
54372;SDS011;69157;53.094;10.016;2023-06-14T06:38:01;2.33;;;1.85;;
54372;SDS011;69157;53.094;10.016;2023-06-14T06:40:28;2.95;;;2.45;;
54372;SDS011;69157;53.094;10.016;2023-06-14T06:42:54;2.50;;;1.40;;
54372;SDS011;69157;53.094;10.016;2023-06-14T06:45:20;2.50;;;1.27;;
54372;SDS011;69157;53.094;10.016;2023-06-14T06:47:46;2.53;;;1.50;;
54372;SDS011;69157;53.094;10.016;2023-06-14T06:50:12;2.75;;;1.40;;
54372;SDS011;69157;53.094;10.016;2023-06-14T06:52:38;1.45;;;1.20;;
54372;SDS011;69157;53.094;10.016;2023-06-14T06:55:04;2.53;;;1.60;;
54372;SDS011;69157;53.094;10.016;2023-06-14T06:57:30;2.25;;;1.45;;
54372;SDS011;69157;53.094;10.016;2023-06-14T06:59:57;1.90;;;1.52;;
54372;SDS011;69157;53.094;10.016;2023-06-14T07:02:23;1.73;;;1.30;;
54372;SDS011;69157;53.094;10.016;2023-06-14T07:04:49;1.80;;;1.40;;
54372;SDS011;69157;53.094;10.016;2023-06-14T07:07:15;1.55;;;1.45;;
54372;SDS011;69157;53.094;10.016;2023-06-14T07:09:41;2.88;;;1.70;;
54372;SDS011;69157;53.094;10.016;2023-06-14T07:12:08;2.53;;;1.67;;
54372;SDS011;69157;53.094;10.016;2023-06-14T07:14:34;1.40;;;1.13;;
54372;SDS011;69157;53.094;10.016;2023-06-14T07:17:00;2.80;;;1.63;;
54372;SDS011;69157;53.094;10.016;2023-06-14T07:19:26;2.30;;;1.50;;
54372;SDS011;69157;53.094;10.016;2023-06-14T07:21:52;1.98;;;1.42;;
54372;SDS011;69157;53.094;10.016;2023-06-14T07:24:19;2.28;;;1.48;;
54372;SDS011;69157;53.094;10.016;2023-06-14T07:26:46;1.40;;;1.30;;
54372;SDS011;69157;53.094;10.016;2023-06-14T07:29:13;2.03;;;1.50;;
54372;SDS011;69157;53.094;10.016;2023-06-14T07:31:39;2.17;;;1.50;;
54372;SDS011;69157;53.094;10.016;2023-06-14T07:34:05;1.48;;;1.38;;
54372;SDS011;69157;53.094;10.016;2023-06-14T07:36:32;2.08;;;1.38;;
54372;SDS011;69157;53.094;10.016;2023-06-14T07:38:58;1.38;;;1.27;;
54372;SDS011;69157;53.094;10.016;2023-06-14T07:41:24;2.30;;;1.50;;
54372;SDS011;69157;53.094;10.016;2023-06-14T07:43:50;1.50;;;1.25;;
54372;SDS011;69157;53.094;10.016;2023-06-14T07:46:16;2.58;;;1.52;;
54372;SDS011;69157;53.094;10.016;2023-06-14T07:48:42;1.33;;;1.23;;
54372;SDS011;69157;53.094;10.016;2023-06-14T07:51:08;2.05;;;1.40;;
54372;SDS011;69157;53.094;10.016;2023-06-14T07:53:34;2.67;;;1.20;;
54372;SDS011;69157;53.094;10.016;2023-06-14T07:56:00;1.73;;;1.50;;
54372;SDS011;69157;53.094;10.016;2023-06-14T07:58:27;1.45;;;1.30;;
54372;SDS011;69157;53.094;10.016;2023-06-14T08:00:53;2.63;;;1.70;;
54372;SDS011;69157;53.094;10.016;2023-06-14T08:03:19;1.58;;;1.40;;
54372;SDS011;69157;53.094;10.016;2023-06-14T08:05:47;3.13;;;1.70;;
54372;SDS011;69157;53.094;10.016;2023-06-14T08:08:13;1.40;;;1.30;;
54372;SDS011;69157;53.094;10.016;2023-06-14T08:10:39;1.80;;;1.40;;
54372;SDS011;69157;53.094;10.016;2023-06-14T08:13:05;2.83;;;1.80;;
54372;SDS011;69157;53.094;10.016;2023-06-14T08:15:31;1.80;;;1.30;;
54372;SDS011;69157;53.094;10.016;2023-06-14T08:17:58;2.85;;;1.33;;
54372;SDS011;69157;53.094;10.016;2023-06-14T08:20:25;2.17;;;1.98;;
54372;SDS011;69157;53.094;10.016;2023-06-14T08:22:51;1.63;;;1.38;;
54372;SDS011;69157;53.094;10.016;2023-06-14T08:25:21;1.40;;;1.30;;
54372;SDS011;69157;53.094;10.016;2023-06-14T08:27:47;2.92;;;1.70;;
54372;SDS011;69157;53.094;10.016;2023-06-14T08:30:13;2.13;;;1.33;;
54372;SDS011;69157;53.094;10.016;2023-06-14T08:32:39;1.95;;;1.50;;
54372;SDS011;69157;53.094;10.016;2023-06-14T08:35:05;2.72;;;1.40;;
54372;SDS011;69157;53.094;10.016;2023-06-14T08:37:32;4.65;;;1.60;;
54372;SDS011;69157;53.094;10.016;2023-06-14T08:40:01;2.33;;;1.40;;
54372;SDS011;69157;53.094;10.016;2023-06-14T08:42:30;1.67;;;1.30;;
54372;SDS011;69157;53.094;10.016;2023-06-14T08:44:57;1.50;;;1.30;;
54372;SDS011;69157;53.094;10.016;2023-06-14T08:47:23;1.70;;;1.50;;
54372;SDS011;69157;53.094;10.016;2023-06-14T08:49:51;1.92;;;1.58;;
54372;SDS011;69157;53.094;10.016;2023-06-14T08:52:20;2.70;;;1.38;;
54372;SDS011;69157;53.094;10.016;2023-06-14T08:54:47;1.98;;;1.48;;
54372;SDS011;69157;53.094;10.016;2023-06-14T08:57:14;2.03;;;1.67;;
54372;SDS011;69157;53.094;10.016;2023-06-14T08:59:45;1.98;;;1.40;;
54372;SDS011;69157;53.094;10.016;2023-06-14T09:02:11;1.85;;;1.70;;
54372;SDS011;69157;53.094;10.016;2023-06-14T09:04:39;4.93;;;1.88;;
54372;SDS011;69157;53.094;10.016;2023-06-14T09:07:06;2.38;;;1.40;;
54372;SDS011;69157;53.094;10.016;2023-06-14T09:09:32;1.58;;;1.40;;
54372;SDS011;69157;53.094;10.016;2023-06-14T09:11:59;3.42;;;1.60;;
54372;SDS011;69157;53.094;10.016;2023-06-14T09:14:25;1.75;;;1.50;;
54372;SDS011;69157;53.094;10.016;2023-06-14T09:16:54;1.55;;;1.45;;
54372;SDS011;69157;53.094;10.016;2023-06-14T09:19:21;2.17;;;1.58;;
54372;SDS011;69157;53.094;10.016;2023-06-14T09:21:47;1.52;;;1.40;;
54372;SDS011;69157;53.094;10.016;2023-06-14T09:24:14;1.63;;;1.50;;
54372;SDS011;69157;53.094;10.016;2023-06-14T09:26:40;2.15;;;1.52;;
54372;SDS011;69157;53.094;10.016;2023-06-14T09:29:06;4.15;;;1.70;;
54372;SDS011;69157;53.094;10.016;2023-06-14T09:31:32;2.67;;;1.75;;
54372;SDS011;69157;53.094;10.016;2023-06-14T09:33:58;2.90;;;1.60;;
54372;SDS011;69157;53.094;10.016;2023-06-14T09:36:27;1.88;;;1.40;;
54372;SDS011;69157;53.094;10.016;2023-06-14T09:38:57;2.83;;;1.50;;
54372;SDS011;69157;53.094;10.016;2023-06-14T09:41:33;2.30;;;1.65;;
54372;SDS011;69157;53.094;10.016;2023-06-14T09:44:00;1.70;;;1.48;;
54372;SDS011;69157;53.094;10.016;2023-06-14T09:46:27;3.15;;;1.17;;
54372;SDS011;69157;53.094;10.016;2023-06-14T09:48:57;1.65;;;1.40;;
54372;SDS011;69157;53.094;10.016;2023-06-14T09:51:23;1.88;;;1.63;;
54372;SDS011;69157;53.094;10.016;2023-06-14T09:53:50;1.55;;;1.45;;
54372;SDS011;69157;53.094;10.016;2023-06-14T09:56:23;1.70;;;1.60;;
54372;SDS011;69157;53.094;10.016;2023-06-14T09:58:56;1.90;;;1.70;;
54372;SDS011;69157;53.094;10.016;2023-06-14T10:01:25;1.70;;;1.60;;
54372;SDS011;69157;53.094;10.016;2023-06-14T10:03:57;3.08;;;1.60;;
54372;SDS011;69157;53.094;10.016;2023-06-14T10:06:26;1.60;;;1.50;;
54372;SDS011;69157;53.094;10.016;2023-06-14T10:08:55;2.92;;;1.58;;
54372;SDS011;69157;53.094;10.016;2023-06-14T10:11:22;2.78;;;1.80;;
54372;SDS011;69157;53.094;10.016;2023-06-14T10:13:48;2.20;;;1.45;;
54372;SDS011;69157;53.094;10.016;2023-06-14T10:16:17;2.50;;;1.60;;
54372;SDS011;69157;53.094;10.016;2023-06-14T10:21:32;1.80;;;1.33;;
54372;SDS011;69157;53.094;10.016;2023-06-14T10:24:01;1.98;;;1.50;;
54372;SDS011;69157;53.094;10.016;2023-06-14T10:26:29;3.17;;;1.30;;
54372;SDS011;69157;53.094;10.016;2023-06-14T10:29:01;2.70;;;1.50;;
54372;SDS011;69157;53.094;10.016;2023-06-14T10:31:49;2.22;;;1.50;;
54372;SDS011;69157;53.094;10.016;2023-06-14T10:34:25;2.28;;;1.42;;
54372;SDS011;69157;53.094;10.016;2023-06-14T10:37:01;2.17;;;1.30;;
54372;SDS011;69157;53.094;10.016;2023-06-14T10:39:28;2.08;;;1.58;;
54372;SDS011;69157;53.094;10.016;2023-06-14T10:41:56;2.08;;;1.58;;
54372;SDS011;69157;53.094;10.016;2023-06-14T10:46:53;4.30;;;1.52;;
54372;SDS011;69157;53.094;10.016;2023-06-14T10:49:39;1.92;;;1.73;;
54372;SDS011;69157;53.094;10.016;2023-06-14T10:52:10;2.00;;;1.63;;
54372;SDS011;69157;53.094;10.016;2023-06-14T10:57:22;2.60;;;1.70;;
54372;SDS011;69157;53.094;10.016;2023-06-14T10:59:48;2.58;;;1.73;;
54372;SDS011;69157;53.094;10.016;2023-06-14T11:04:50;2.25;;;1.55;;
54372;SDS011;69157;53.094;10.016;2023-06-14T11:12:45;2.05;;;1.58;;
54372;SDS011;69157;53.094;10.016;2023-06-14T11:15:13;2.08;;;1.77;;
54372;SDS011;69157;53.094;10.016;2023-06-14T11:17:39;2.10;;;1.83;;
54372;SDS011;69157;53.094;10.016;2023-06-14T11:20:09;3.17;;;1.85;;
54372;SDS011;69157;53.094;10.016;2023-06-14T11:22:39;6.97;;;1.90;;
54372;SDS011;69157;53.094;10.016;2023-06-14T11:25:08;1.90;;;1.67;;
54372;SDS011;69157;53.094;10.016;2023-06-14T11:27:34;2.13;;;1.55;;
54372;SDS011;69157;53.094;10.016;2023-06-14T11:30:00;7.35;;;1.73;;
54372;SDS011;69157;53.094;10.016;2023-06-14T11:32:26;5.60;;;1.70;;
54372;SDS011;69157;53.094;10.016;2023-06-14T11:34:52;6.88;;;1.92;;
54372;SDS011;69157;53.094;10.016;2023-06-14T11:37:18;3.50;;;1.90;;
54372;SDS011;69157;53.094;10.016;2023-06-14T11:39:44;3.92;;;1.75;;
54372;SDS011;69157;53.094;10.016;2023-06-14T11:42:15;2.83;;;1.60;;
54372;SDS011;69157;53.094;10.016;2023-06-14T11:47:07;2.47;;;1.55;;
54372;SDS011;69157;53.094;10.016;2023-06-14T11:49:36;2.10;;;1.40;;
54372;SDS011;69157;53.094;10.016;2023-06-14T11:52:02;2.97;;;1.58;;
54372;SDS011;69157;53.094;10.016;2023-06-14T11:54:28;3.65;;;1.67;;
54372;SDS011;69157;53.094;10.016;2023-06-14T11:56:54;3.33;;;1.70;;
54372;SDS011;69157;53.094;10.016;2023-06-14T11:59:20;2.03;;;1.40;;
54372;SDS011;69157;53.094;10.016;2023-06-14T12:01:47;1.75;;;1.65;;
54372;SDS011;69157;53.094;10.016;2023-06-14T12:04:13;2.35;;;1.58;;
54372;SDS011;69157;53.094;10.016;2023-06-14T12:06:39;2.00;;;1.60;;
54372;SDS011;69157;53.094;10.016;2023-06-14T12:09:06;1.63;;;1.38;;
54372;SDS011;69157;53.094;10.016;2023-06-14T12:11:37;2.25;;;1.73;;
54372;SDS011;69157;53.094;10.016;2023-06-14T12:14:04;1.92;;;1.73;;
54372;SDS011;69157;53.094;10.016;2023-06-14T12:16:31;2.65;;;1.70;;
54372;SDS011;69157;53.094;10.016;2023-06-14T12:18:59;2.58;;;1.60;;
54372;SDS011;69157;53.094;10.016;2023-06-14T12:21:27;3.83;;;1.85;;
54372;SDS011;69157;53.094;10.016;2023-06-14T12:23:54;2.72;;;1.50;;
54372;SDS011;69157;53.094;10.016;2023-06-14T12:26:20;2.55;;;1.60;;
54372;SDS011;69157;53.094;10.016;2023-06-14T12:28:47;1.63;;;1.52;;
54372;SDS011;69157;53.094;10.016;2023-06-14T12:31:14;3.22;;;1.75;;
54372;SDS011;69157;53.094;10.016;2023-06-14T12:33:41;2.65;;;1.90;;
54372;SDS011;69157;53.094;10.016;2023-06-14T12:36:07;1.83;;;1.55;;
54372;SDS011;69157;53.094;10.016;2023-06-14T12:38:33;3.47;;;1.80;;
54372;SDS011;69157;53.094;10.016;2023-06-14T12:41:00;2.45;;;1.70;;
54372;SDS011;69157;53.094;10.016;2023-06-14T12:43:26;1.98;;;1.38;;
54372;SDS011;69157;53.094;10.016;2023-06-14T12:45:52;3.03;;;1.50;;
54372;SDS011;69157;53.094;10.016;2023-06-14T12:48:19;2.17;;;1.60;;
54372;SDS011;69157;53.094;10.016;2023-06-14T12:50:45;3.13;;;1.70;;
54372;SDS011;69157;53.094;10.016;2023-06-14T12:53:11;2.05;;;1.60;;
54372;SDS011;69157;53.094;10.016;2023-06-14T12:55:37;2.42;;;1.70;;
54372;SDS011;69157;53.094;10.016;2023-06-14T12:58:03;2.95;;;1.70;;
54372;SDS011;69157;53.094;10.016;2023-06-14T13:00:29;1.98;;;1.42;;
54372;SDS011;69157;53.094;10.016;2023-06-14T13:02:56;2.00;;;1.80;;
54372;SDS011;69157;53.094;10.016;2023-06-14T13:05:22;1.70;;;1.50;;
54372;SDS011;69157;53.094;10.016;2023-06-14T13:07:48;2.33;;;1.52;;
54372;SDS011;69157;53.094;10.016;2023-06-14T13:10:15;1.80;;;1.40;;
54372;SDS011;69157;53.094;10.016;2023-06-14T13:12:41;1.88;;;1.60;;
54372;SDS011;69157;53.094;10.016;2023-06-14T13:15:07;1.75;;;1.42;;
54372;SDS011;69157;53.094;10.016;2023-06-14T13:17:34;31.02;;;3.45;;
54372;SDS011;69157;53.094;10.016;2023-06-14T13:20:06;2.40;;;1.85;;
54372;SDS011;69157;53.094;10.016;2023-06-14T13:22:33;3.20;;;1.50;;
54372;SDS011;69157;53.094;10.016;2023-06-14T13:24:59;2.30;;;1.65;;
54372;SDS011;69157;53.094;10.016;2023-06-14T13:27:26;2.30;;;1.80;;
54372;SDS011;69157;53.094;10.016;2023-06-14T13:29:52;3.25;;;1.55;;
54372;SDS011;69157;53.094;10.016;2023-06-14T13:32:18;2.65;;;1.45;;
54372;SDS011;69157;53.094;10.016;2023-06-14T13:34:44;2.50;;;1.92;;
54372;SDS011;69157;53.094;10.016;2023-06-14T13:37:10;4.40;;;1.75;;
54372;SDS011;69157;53.094;10.016;2023-06-14T13:39:36;2.88;;;1.48;;
54372;SDS011;69157;53.094;10.016;2023-06-14T13:42:02;1.70;;;1.38;;
54372;SDS011;69157;53.094;10.016;2023-06-14T13:44:28;3.67;;;1.42;;
54372;SDS011;69157;53.094;10.016;2023-06-14T13:46:54;2.20;;;1.55;;
54372;SDS011;69157;53.094;10.016;2023-06-14T13:49:20;1.88;;;1.50;;
54372;SDS011;69157;53.094;10.016;2023-06-14T13:51:46;2.55;;;1.40;;
54372;SDS011;69157;53.094;10.016;2023-06-14T13:54:13;1.98;;;1.23;;
54372;SDS011;69157;53.094;10.016;2023-06-14T13:56:42;1.67;;;1.43;;
54372;SDS011;69157;53.094;10.016;2023-06-14T13:59:08;1.73;;;1.40;;
54372;SDS011;69157;53.094;10.016;2023-06-14T14:01:34;1.98;;;1.70;;
54372;SDS011;69157;53.094;10.016;2023-06-14T14:04:00;5.32;;;1.70;;
54372;SDS011;69157;53.094;10.016;2023-06-14T14:06:27;9.07;;;1.80;;
54372;SDS011;69157;53.094;10.016;2023-06-14T14:08:53;6.97;;;1.90;;
54372;SDS011;69157;53.094;10.016;2023-06-14T14:11:19;2.22;;;1.63;;
54372;SDS011;69157;53.094;10.016;2023-06-14T14:13:45;3.55;;;1.50;;
54372;SDS011;69157;53.094;10.016;2023-06-14T14:16:12;1.63;;;1.20;;
54372;SDS011;69157;53.094;10.016;2023-06-14T14:18:38;1.90;;;1.40;;
54372;SDS011;69157;53.094;10.016;2023-06-14T14:21:05;2.17;;;1.50;;
54372;SDS011;69157;53.094;10.016;2023-06-14T14:23:31;1.95;;;1.42;;
54372;SDS011;69157;53.094;10.016;2023-06-14T14:25:58;5.03;;;1.58;;
54372;SDS011;69157;53.094;10.016;2023-06-14T14:28:28;3.05;;;1.38;;
54372;SDS011;69157;53.094;10.016;2023-06-14T14:30:54;2.15;;;1.38;;
54372;SDS011;69157;53.094;10.016;2023-06-14T14:33:20;1.80;;;1.45;;
54372;SDS011;69157;53.094;10.016;2023-06-14T14:35:46;1.60;;;1.20;;
54372;SDS011;69157;53.094;10.016;2023-06-14T14:38:13;2.17;;;1.60;;
54372;SDS011;69157;53.094;10.016;2023-06-14T14:40:40;2.55;;;1.45;;
54372;SDS011;69157;53.094;10.016;2023-06-14T14:43:06;2.72;;;1.38;;
54372;SDS011;69157;53.094;10.016;2023-06-14T14:45:32;5.03;;;1.67;;
54372;SDS011;69157;53.094;10.016;2023-06-14T14:47:59;2.78;;;1.48;;
54372;SDS011;69157;53.094;10.016;2023-06-14T14:50:26;1.63;;;1.25;;
54372;SDS011;69157;53.094;10.016;2023-06-14T14:52:52;1.63;;;1.35;;
54372;SDS011;69157;53.094;10.016;2023-06-14T14:55:18;1.45;;;1.13;;
54372;SDS011;69157;53.094;10.016;2023-06-14T14:57:45;2.55;;;1.20;;
54372;SDS011;69157;53.094;10.016;2023-06-14T15:00:11;1.50;;;1.40;;